TimeEST,TemperatureF,Dew PointF,Humidity,Sea Level PressureIn,VisibilityMPH,Wind Direction,Wind SpeedMPH,Gust SpeedMPH,PrecipitationIn,Events,Conditions,WindDirDegrees,DateUTC
12:53 AM,44.1,39.9,85,30.55,10.0,NNE,10.4,-,N/A,,Clear,30,2012-11-19 05:53:00
1:53 AM,45.0,41.0,86,30.54,10.0,NE,9.2,-,N/A,,Clear,40,2012-11-19 06:53:00
2:53 AM,46.0,42.1,86,30.51,10.0,NE,11.5,-,N/A,,Clear,40,2012-11-19 07:53:00
3:53 AM,46.9,42.1,83,30.50,10.0,NE,10.4,-,N/A,,Clear,50,2012-11-19 08:53:00
4:53 AM,46.9,43.0,86,30.49,10.0,NE,9.2,-,N/A,,Clear,50,2012-11-19 09:53:00
5:53 AM,46.9,43.0,86,30.48,10.0,NE,10.4,-,N/A,,Clear,50,2012-11-19 10:53:00
6:53 AM,46.9,43.0,86,30.48,10.0,NE,11.5,-,N/A,,Clear,50,2012-11-19 11:53:00
7:53 AM,48.9,44.1,83,30.46,10.0,NE,15.0,-,N/A,,Clear,50,2012-11-19 12:53:00
8:53 AM,50.0,45.0,83,30.45,10.0,NE,13.8,-,N/A,,Clear,50,2012-11-19 13:53:00
9:53 AM,51.1,45.0,80,30.45,10.0,NE,18.4,24.2,N/A,,Partly Cloudy,50,2012-11-19 14:53:00
10:53 AM,51.1,44.1,77,30.41,10.0,NE,18.4,26.5,N/A,,Clear,50,2012-11-19 15:53:00
11:53 AM,53.1,45.0,74,30.39,10.0,NE,15.0,24.2,N/A,,Scattered Clouds,50,2012-11-19 16:53:00
12:53 PM,53.1,45.0,74,30.36,10.0,NE,17.3,-,N/A,,Partly Cloudy,50,2012-11-19 17:53:00
1:33 PM,51.8,44.6,76,30.35,10.0,NNE,18.4,-,N/A,,Mostly Cloudy,30,2012-11-19 18:33:00
1:53 PM,51.1,45.0,80,30.35,10.0,NNE,19.6,-,N/A,,Overcast,30,2012-11-19 18:53:00
2:53 PM,51.1,44.1,77,30.34,10.0,NE,18.4,-,N/A,,Overcast,40,2012-11-19 19:53:00
3:53 PM,48.9,44.1,83,30.33,10.0,NNE,13.8,-,N/A,,Mostly Cloudy,30,2012-11-19 20:53:00
4:02 PM,48.2,44.6,87,30.33,10.0,NNE,13.8,-,N/A,,Scattered Clouds,30,2012-11-19 21:02:00
4:53 PM,46.9,43.0,86,30.32,10.0,NNE,13.8,-,N/A,,Scattered Clouds,30,2012-11-19 21:53:00
5:53 PM,46.0,43.0,89,30.31,10.0,NNE,13.8,-,N/A,,Clear,30,2012-11-19 22:53:00
6:53 PM,48.0,44.1,86,30.29,10.0,NNE,13.8,-,N/A,,Mostly Cloudy,30,2012-11-19 23:53:00
7:53 PM,48.0,44.1,86,30.27,10.0,NNE,12.7,-,N/A,,Mostly Cloudy,30,2012-11-20 00:53:00
8:53 PM,48.0,43.0,83,30.26,10.0,NNE,13.8,-,N/A,,Mostly Cloudy,20,2012-11-20 01:53:00
9:53 PM,48.9,44.1,83,30.24,10.0,NNE,12.7,-,N/A,,Overcast,30,2012-11-20 02:53:00
10:53 PM,48.9,45.0,86,30.22,10.0,NNE,13.8,-,N/A,,Overcast,30,2012-11-20 03:53:00
11:53 PM,50.0,45.0,83,30.22,10.0,NNE,12.7,-,N/A,,Overcast,30,2012-11-20 04:53:00